sensor_id;sensor_type;location;lat;lon;timestamp;P1;durP1;ratioP1;P2;durP2;ratioP2
41946;SDS011;27638;42.184;24.848;2023-04-08T00:00:00;17.33;;;12.45;;
41946;SDS011;27638;42.184;24.848;2023-04-08T00:02:27;19.90;;;12.00;;
41946;SDS011;27638;42.184;24.848;2023-04-08T00:04:52;19.42;;;12.60;;
41946;SDS011;27638;42.184;24.848;2023-04-08T00:07:18;17.77;;;12.55;;
41946;SDS011;27638;42.184;24.848;2023-04-08T00:09:43;17.45;;;11.70;;
41946;SDS011;27638;42.184;24.848;2023-04-08T00:12:09;20.38;;;12.57;;
41946;SDS011;27638;42.184;24.848;2023-04-08T00:14:34;16.10;;;12.63;;
41946;SDS011;27638;42.184;24.848;2023-04-08T00:17:02;18.05;;;12.48;;
41946;SDS011;27638;42.184;24.848;2023-04-08T00:19:27;19.38;;;12.68;;
41946;SDS011;27638;42.184;24.848;2023-04-08T00:21:53;18.40;;;12.32;;
41946;SDS011;27638;42.184;24.848;2023-04-08T00:24:18;16.42;;;12.07;;
41946;SDS011;27638;42.184;24.848;2023-04-08T00:26:44;16.80;;;11.63;;
41946;SDS011;27638;42.184;24.848;2023-04-08T00:29:09;18.17;;;12.00;;
41946;SDS011;27638;42.184;24.848;2023-04-08T00:31:35;17.58;;;11.60;;
41946;SDS011;27638;42.184;24.848;2023-04-08T00:34:00;18.63;;;12.85;;
41946;SDS011;27638;42.184;24.848;2023-04-08T00:36:26;18.70;;;13.52;;
41946;SDS011;27638;42.184;24.848;2023-04-08T00:38:52;16.92;;;11.90;;
41946;SDS011;27638;42.184;24.848;2023-04-08T00:41:17;17.55;;;12.90;;
41946;SDS011;27638;42.184;24.848;2023-04-08T00:43:43;17.77;;;12.27;;
41946;SDS011;27638;42.184;24.848;2023-04-08T00:46:08;16.27;;;11.73;;
41946;SDS011;27638;42.184;24.848;2023-04-08T00:48:34;17.08;;;11.48;;
41946;SDS011;27638;42.184;24.848;2023-04-08T00:51:00;18.63;;;13.10;;
41946;SDS011;27638;42.184;24.848;2023-04-08T00:53:26;20.92;;;12.70;;
41946;SDS011;27638;42.184;24.848;2023-04-08T00:55:51;19.67;;;13.57;;
41946;SDS011;27638;42.184;24.848;2023-04-08T00:58:17;18.13;;;12.65;;
41946;SDS011;27638;42.184;24.848;2023-04-08T01:00:45;17.65;;;11.68;;
41946;SDS011;27638;42.184;24.848;2023-04-08T01:08:44;18.17;;;11.52;;
41946;SDS011;27638;42.184;24.848;2023-04-08T01:11:11;19.65;;;11.45;;
41946;SDS011;27638;42.184;24.848;2023-04-08T01:13:39;19.27;;;11.73;;
41946;SDS011;27638;42.184;24.848;2023-04-08T01:16:09;19.30;;;12.05;;
41946;SDS011;27638;42.184;24.848;2023-04-08T01:18:38;18.08;;;11.75;;
41946;SDS011;27638;42.184;24.848;2023-04-08T01:21:07;19.80;;;12.45;;
41946;SDS011;27638;42.184;24.848;2023-04-08T01:23:42;21.52;;;12.60;;
41946;SDS011;27638;42.184;24.848;2023-04-08T01:26:27;19.10;;;12.43;;
41946;SDS011;27638;42.184;24.848;2023-04-08T01:28:55;20.80;;;13.35;;
41946;SDS011;27638;42.184;24.848;2023-04-08T01:31:23;22.35;;;12.52;;
41946;SDS011;27638;42.184;24.848;2023-04-08T01:33:50;19.13;;;12.35;;
41946;SDS011;27638;42.184;24.848;2023-04-08T01:36:16;20.75;;;12.65;;
41946;SDS011;27638;42.184;24.848;2023-04-08T01:38:45;22.45;;;13.65;;
41946;SDS011;27638;42.184;24.848;2023-04-08T01:41:11;21.83;;;12.82;;
41946;SDS011;27638;42.184;24.848;2023-04-08T01:43:40;20.90;;;12.73;;
41946;SDS011;27638;42.184;24.848;2023-04-08T01:46:08;19.38;;;12.68;;
41946;SDS011;27638;42.184;24.848;2023-04-08T01:48:35;20.52;;;13.85;;
41946;SDS011;27638;42.184;24.848;2023-04-08T01:51:03;23.80;;;13.98;;
41946;SDS011;27638;42.184;24.848;2023-04-08T01:53:30;21.90;;;14.35;;
41946;SDS011;27638;42.184;24.848;2023-04-08T01:56:00;21.33;;;14.45;;
41946;SDS011;27638;42.184;24.848;2023-04-08T01:58:30;24.48;;;14.48;;
41946;SDS011;27638;42.184;24.848;2023-04-08T02:01:02;23.42;;;14.18;;
41946;SDS011;27638;42.184;24.848;2023-04-08T02:03:29;22.80;;;14.45;;
41946;SDS011;27638;42.184;24.848;2023-04-08T02:05:56;23.38;;;13.95;;
41946;SDS011;27638;42.184;24.848;2023-04-08T02:08:21;23.98;;;15.05;;
41946;SDS011;27638;42.184;24.848;2023-04-08T02:10:47;23.85;;;14.77;;
41946;SDS011;27638;42.184;24.848;2023-04-08T02:13:12;20.15;;;12.63;;
41946;SDS011;27638;42.184;24.848;2023-04-08T02:15:42;25.08;;;14.23;;
41946;SDS011;27638;42.184;24.848;2023-04-08T02:18:16;22.67;;;13.70;;
41946;SDS011;27638;42.184;24.848;2023-04-08T02:20:52;25.85;;;15.20;;
41946;SDS011;27638;42.184;24.848;2023-04-08T02:23:39;22.83;;;13.65;;
41946;SDS011;27638;42.184;24.848;2023-04-08T02:26:06;24.38;;;14.48;;
41946;SDS011;27638;42.184;24.848;2023-04-08T02:28:38;22.23;;;13.40;;
41946;SDS011;27638;42.184;24.848;2023-04-08T02:31:05;21.65;;;13.55;;
41946;SDS011;27638;42.184;24.848;2023-04-08T02:33:34;23.20;;;14.13;;
41946;SDS011;27638;42.184;24.848;2023-04-08T02:36:02;23.50;;;14.77;;
41946;SDS011;27638;42.184;24.848;2023-04-08T02:38:29;25.15;;;14.93;;
41946;SDS011;27638;42.184;24.848;2023-04-08T02:40:55;24.00;;;14.25;;
41946;SDS011;27638;42.184;24.848;2023-04-08T02:43:21;22.25;;;14.35;;
41946;SDS011;27638;42.184;24.848;2023-04-08T02:45:50;21.83;;;14.48;;
41946;SDS011;27638;42.184;24.848;2023-04-08T02:48:16;26.55;;;15.82;;
41946;SDS011;27638;42.184;24.848;2023-04-08T02:50:41;25.70;;;14.68;;
41946;SDS011;27638;42.184;24.848;2023-04-08T02:53:07;25.15;;;15.98;;
41946;SDS011;27638;42.184;24.848;2023-04-08T02:55:33;27.40;;;15.95;;
41946;SDS011;27638;42.184;24.848;2023-04-08T02:57:59;27.98;;;15.82;;
41946;SDS011;27638;42.184;24.848;2023-04-08T03:00:24;24.95;;;15.57;;
41946;SDS011;27638;42.184;24.848;2023-04-08T03:02:50;27.63;;;15.75;;
41946;SDS011;27638;42.184;24.848;2023-04-08T03:05:15;26.20;;;15.32;;
41946;SDS011;27638;42.184;24.848;2023-04-08T03:07:41;26.02;;;15.85;;
41946;SDS011;27638;42.184;24.848;2023-04-08T03:10:07;25.13;;;15.38;;
41946;SDS011;27638;42.184;24.848;2023-04-08T03:12:33;26.33;;;16.02;;
41946;SDS011;27638;42.184;24.848;2023-04-08T03:14:58;25.75;;;15.52;;
41946;SDS011;27638;42.184;24.848;2023-04-08T03:17:24;26.52;;;17.02;;
41946;SDS011;27638;42.184;24.848;2023-04-08T03:19:50;24.90;;;16.10;;
41946;SDS011;27638;42.184;24.848;2023-04-08T03:22:15;25.30;;;16.08;;
41946;SDS011;27638;42.184;24.848;2023-04-08T03:24:41;26.48;;;15.95;;
41946;SDS011;27638;42.184;24.848;2023-04-08T03:27:06;27.25;;;16.38;;
41946;SDS011;27638;42.184;24.848;2023-04-08T03:29:32;26.15;;;15.35;;
41946;SDS011;27638;42.184;24.848;2023-04-08T03:31:58;23.67;;;15.10;;
41946;SDS011;27638;42.184;24.848;2023-04-08T03:34:23;24.23;;;15.15;;
41946;SDS011;27638;42.184;24.848;2023-04-08T03:36:49;28.75;;;17.27;;
41946;SDS011;27638;42.184;24.848;2023-04-08T03:39:14;25.42;;;15.07;;
41946;SDS011;27638;42.184;24.848;2023-04-08T03:41:39;27.73;;;16.75;;
41946;SDS011;27638;42.184;24.848;2023-04-08T03:44:05;25.45;;;15.73;;
41946;SDS011;27638;42.184;24.848;2023-04-08T03:46:30;26.25;;;16.00;;
41946;SDS011;27638;42.184;24.848;2023-04-08T03:48:56;32.40;;;16.33;;
41946;SDS011;27638;42.184;24.848;2023-04-08T03:51:21;28.27;;;16.17;;
41946;SDS011;27638;42.184;24.848;2023-04-08T03:53:47;29.55;;;15.50;;
41946;SDS011;27638;42.184;24.848;2023-04-08T03:56:13;25.90;;;14.63;;
41946;SDS011;27638;42.184;24.848;2023-04-08T03:58:38;29.15;;;16.00;;
41946;SDS011;27638;42.184;24.848;2023-04-08T04:01:04;28.63;;;14.98;;
41946;SDS011;27638;42.184;24.848;2023-04-08T04:03:29;27.00;;;16.15;;
41946;SDS011;27638;42.184;24.848;2023-04-08T04:05:55;30.52;;;15.57;;
41946;SDS011;27638;42.184;24.848;2023-04-08T04:08:21;28.90;;;16.25;;
41946;SDS011;27638;42.184;24.848;2023-04-08T04:10:46;31.10;;;16.98;;
41946;SDS011;27638;42.184;24.848;2023-04-08T04:13:12;29.25;;;16.50;;
41946;SDS011;27638;42.184;24.848;2023-04-08T04:15:38;29.23;;;17.38;;
41946;SDS011;27638;42.184;24.848;2023-04-08T04:18:05;29.23;;;16.65;;
41946;SDS011;27638;42.184;24.848;2023-04-08T04:20:31;26.65;;;16.10;;
41946;SDS011;27638;42.184;24.848;2023-04-08T04:22:56;28.98;;;17.40;;
41946;SDS011;27638;42.184;24.848;2023-04-08T04:25:22;30.40;;;16.95;;
41946;SDS011;27638;42.184;24.848;2023-04-08T04:27:48;28.63;;;17.05;;
41946;SDS011;27638;42.184;24.848;2023-04-08T04:30:13;34.08;;;17.48;;
41946;SDS011;27638;42.184;24.848;2023-04-08T04:32:42;26.42;;;16.08;;
41946;SDS011;27638;42.184;24.848;2023-04-08T04:35:08;31.92;;;16.52;;
41946;SDS011;27638;42.184;24.848;2023-04-08T04:37:34;29.90;;;16.70;;
41946;SDS011;27638;42.184;24.848;2023-04-08T04:40:00;30.92;;;17.60;;
41946;SDS011;27638;42.184;24.848;2023-04-08T04:42:29;28.15;;;16.50;;
41946;SDS011;27638;42.184;24.848;2023-04-08T04:44:55;28.15;;;16.85;;
41946;SDS011;27638;42.184;24.848;2023-04-08T04:47:21;28.02;;;17.33;;
41946;SDS011;27638;42.184;24.848;2023-04-08T04:49:47;30.80;;;18.13;;
41946;SDS011;27638;42.184;24.848;2023-04-08T04:52:12;30.88;;;16.67;;
41946;SDS011;27638;42.184;24.848;2023-04-08T04:54:38;34.65;;;17.45;;
41946;SDS011;27638;42.184;24.848;2023-04-08T04:57:03;30.15;;;17.65;;
41946;SDS011;27638;42.184;24.848;2023-04-08T04:59:29;29.48;;;17.60;;
41946;SDS011;27638;42.184;24.848;2023-04-08T05:01:55;31.33;;;18.02;;
41946;SDS011;27638;42.184;24.848;2023-04-08T05:04:23;31.90;;;17.50;;
41946;SDS011;27638;42.184;24.848;2023-04-08T05:06:49;30.40;;;17.40;;
41946;SDS011;27638;42.184;24.848;2023-04-08T05:09:15;37.38;;;17.85;;
41946;SDS011;27638;42.184;24.848;2023-04-08T05:11:40;30.52;;;17.45;;
41946;SDS011;27638;42.184;24.848;2023-04-08T05:14:06;27.08;;;15.48;;
41946;SDS011;27638;42.184;24.848;2023-04-08T05:16:32;34.38;;;18.13;;
41946;SDS011;27638;42.184;24.848;2023-04-08T05:18:58;28.27;;;16.50;;
41946;SDS011;27638;42.184;24.848;2023-04-08T05:21:23;31.20;;;17.73;;
41946;SDS011;27638;42.184;24.848;2023-04-08T05:23:50;31.33;;;17.45;;
41946;SDS011;27638;42.184;24.848;2023-04-08T05:26:17;28.17;;;16.55;;
41946;SDS011;27638;42.184;24.848;2023-04-08T05:28:45;26.60;;;16.17;;
41946;SDS011;27638;42.184;24.848;2023-04-08T05:31:11;25.48;;;15.80;;
41946;SDS011;27638;42.184;24.848;2023-04-08T05:33:37;29.20;;;15.35;;
41946;SDS011;27638;42.184;24.848;2023-04-08T05:36:02;24.10;;;14.52;;
41946;SDS011;27638;42.184;24.848;2023-04-08T05:38:28;28.80;;;16.70;;
41946;SDS011;27638;42.184;24.848;2023-04-08T05:40:53;29.77;;;16.38;;
41946;SDS011;27638;42.184;24.848;2023-04-08T05:43:19;28.65;;;16.20;;
41946;SDS011;27638;42.184;24.848;2023-04-08T05:45:44;32.20;;;16.42;;
41946;SDS011;27638;42.184;24.848;2023-04-08T05:48:10;28.55;;;16.50;;
41946;SDS011;27638;42.184;24.848;2023-04-08T05:50:36;28.77;;;16.75;;
41946;SDS011;27638;42.184;24.848;2023-04-08T05:53:01;32.92;;;18.85;;
41946;SDS011;27638;42.184;24.848;2023-04-08T05:55:27;28.02;;;15.95;;
41946;SDS011;27638;42.184;24.848;2023-04-08T05:57:52;27.10;;;16.13;;
41946;SDS011;27638;42.184;24.848;2023-04-08T06:00:18;27.20;;;16.85;;
41946;SDS011;27638;42.184;24.848;2023-04-08T06:02:44;26.05;;;17.00;;
41946;SDS011;27638;42.184;24.848;2023-04-08T06:05:10;26.55;;;14.95;;
41946;SDS011;27638;42.184;24.848;2023-04-08T06:07:35;29.42;;;17.50;;
41946;SDS011;27638;42.184;24.848;2023-04-08T06:10:01;27.48;;;15.88;;
41946;SDS011;27638;42.184;24.848;2023-04-08T06:12:27;33.50;;;17.15;;
41946;SDS011;27638;42.184;24.848;2023-04-08T06:14:53;30.40;;;15.85;;
41946;SDS011;27638;42.184;24.848;2023-04-08T06:17:20;31.20;;;16.13;;
41946;SDS011;27638;42.184;24.848;2023-04-08T06:19:45;26.05;;;14.23;;
41946;SDS011;27638;42.184;24.848;2023-04-08T06:22:11;27.98;;;16.17;;
41946;SDS011;27638;42.184;24.848;2023-04-08T06:24:36;31.25;;;17.13;;
41946;SDS011;27638;42.184;24.848;2023-04-08T06:27:02;29.95;;;16.30;;
41946;SDS011;27638;42.184;24.848;2023-04-08T06:29:27;27.58;;;15.98;;
41946;SDS011;27638;42.184;24.848;2023-04-08T06:31:54;26.55;;;16.45;;
41946;SDS011;27638;42.184;24.848;2023-04-08T06:34:20;26.88;;;16.13;;
41946;SDS011;27638;42.184;24.848;2023-04-08T06:36:45;24.80;;;15.10;;
41946;SDS011;27638;42.184;24.848;2023-04-08T06:39:11;27.85;;;15.98;;
41946;SDS011;27638;42.184;24.848;2023-04-08T06:41:37;28.02;;;15.23;;
41946;SDS011;27638;42.184;24.848;2023-04-08T06:44:02;27.73;;;14.60;;
41946;SDS011;27638;42.184;24.848;2023-04-08T06:46:28;27.95;;;15.50;;
41946;SDS011;27638;42.184;24.848;2023-04-08T06:48:53;25.77;;;15.00;;
41946;SDS011;27638;42.184;24.848;2023-04-08T06:51:19;27.98;;;15.00;;
41946;SDS011;27638;42.184;24.848;2023-04-08T06:53:45;25.50;;;15.25;;
41946;SDS011;27638;42.184;24.848;2023-04-08T06:56:10;26.77;;;15.50;;
41946;SDS011;27638;42.184;24.848;2023-04-08T06:58:36;27.33;;;15.82;;
41946;SDS011;27638;42.184;24.848;2023-04-08T07:01:01;27.10;;;15.68;;
41946;SDS011;27638;42.184;24.848;2023-04-08T07:03:27;24.63;;;14.75;;
41946;SDS011;27638;42.184;24.848;2023-04-08T07:05:52;29.05;;;15.68;;
41946;SDS011;27638;42.184;24.848;2023-04-08T07:08:18;27.20;;;16.00;;
41946;SDS011;27638;42.184;24.848;2023-04-08T07:10:43;26.73;;;15.50;;
41946;SDS011;27638;42.184;24.848;2023-04-08T07:13:09;23.80;;;14.75;;
41946;SDS011;27638;42.184;24.848;2023-04-08T07:15:35;27.02;;;16.02;;
41946;SDS011;27638;42.184;24.848;2023-04-08T07:18:00;26.45;;;15.05;;
41946;SDS011;27638;42.184;24.848;2023-04-08T07:20:26;25.73;;;15.35;;
41946;SDS011;27638;42.184;24.848;2023-04-08T07:22:52;28.08;;;16.23;;
41946;SDS011;27638;42.184;24.848;2023-04-08T07:25:17;25.95;;;14.93;;
41946;SDS011;27638;42.184;24.848;2023-04-08T07:27:43;26.23;;;14.75;;
41946;SDS011;27638;42.184;24.848;2023-04-08T07:30:08;26.67;;;15.50;;
41946;SDS011;27638;42.184;24.848;2023-04-08T07:32:34;25.85;;;15.18;;
41946;SDS011;27638;42.184;24.848;2023-04-08T07:35:00;29.83;;;16.60;;
41946;SDS011;27638;42.184;24.848;2023-04-08T07:37:26;27.30;;;15.73;;
41946;SDS011;27638;42.184;24.848;2023-04-08T07:39:52;24.75;;;14.48;;
41946;SDS011;27638;42.184;24.848;2023-04-08T07:42:17;24.58;;;16.20;;
41946;SDS011;27638;42.184;24.848;2023-04-08T07:44:44;25.08;;;15.30;;
41946;SDS011;27638;42.184;24.848;2023-04-08T07:47:10;24.85;;;15.98;;
41946;SDS011;27638;42.184;24.848;2023-04-08T07:49:36;22.83;;;15.15;;
41946;SDS011;27638;42.184;24.848;2023-04-08T07:52:01;25.92;;;16.00;;
41946;SDS011;27638;42.184;24.848;2023-04-08T07:54:27;27.00;;;15.55;;
41946;SDS011;27638;42.184;24.848;2023-04-08T07:56:52;29.92;;;17.38;;
41946;SDS011;27638;42.184;24.848;2023-04-08T07:59:18;30.10;;;17.73;;
41946;SDS011;27638;42.184;24.848;2023-04-08T08:01:43;28.35;;;16.70;;
41946;SDS011;27638;42.184;24.848;2023-04-08T08:04:09;27.08;;;15.88;;
41946;SDS011;27638;42.184;24.848;2023-04-08T08:06:34;26.27;;;15.63;;
41946;SDS011;27638;42.184;24.848;2023-04-08T08:08:59;26.60;;;15.88;;
41946;SDS011;27638;42.184;24.848;2023-04-08T08:11:25;27.58;;;17.08;;
41946;SDS011;27638;42.184;24.848;2023-04-08T08:13:53;25.00;;;16.17;;
41946;SDS011;27638;42.184;24.848;2023-04-08T08:16:19;23.52;;;16.58;;
41946;SDS011;27638;42.184;24.848;2023-04-08T08:18:45;26.83;;;17.65;;
41946;SDS011;27638;42.184;24.848;2023-04-08T08:21:10;31.92;;;18.80;;
41946;SDS011;27638;42.184;24.848;2023-04-08T08:23:36;29.20;;;16.80;;
41946;SDS011;27638;42.184;24.848;2023-04-08T08:26:02;26.15;;;16.13;;
41946;SDS011;27638;42.184;24.848;2023-04-08T08:28:30;27.10;;;16.33;;
41946;SDS011;27638;42.184;24.848;2023-04-08T08:30:56;28.52;;;18.08;;
41946;SDS011;27638;42.184;24.848;2023-04-08T08:33:21;25.77;;;16.60;;
41946;SDS011;27638;42.184;24.848;2023-04-08T08:35:47;27.85;;;17.90;;
41946;SDS011;27638;42.184;24.848;2023-04-08T08:38:12;28.58;;;17.55;;
41946;SDS011;27638;42.184;24.848;2023-04-08T08:40:38;30.00;;;17.67;;
41946;SDS011;27638;42.184;24.848;2023-04-08T08:43:03;27.73;;;16.73;;
41946;SDS011;27638;42.184;24.848;2023-04-08T08:45:29;22.92;;;15.50;;
41946;SDS011;27638;42.184;24.848;2023-04-08T08:47:55;25.50;;;17.67;;
41946;SDS011;27638;42.184;24.848;2023-04-08T08:50:21;28.65;;;17.40;;
41946;SDS011;27638;42.184;24.848;2023-04-08T08:52:47;25.33;;;16.60;;
41946;SDS011;27638;42.184;24.848;2023-04-08T08:55:19;27.20;;;15.40;;
41946;SDS011;27638;42.184;24.848;2023-04-08T08:57:45;23.00;;;15.55;;
41946;SDS011;27638;42.184;24.848;2023-04-08T09:00:14;25.23;;;15.85;;
41946;SDS011;27638;42.184;24.848;2023-04-08T09:02:40;25.35;;;14.18;;
41946;SDS011;27638;42.184;24.848;2023-04-08T09:05:06;23.27;;;13.65;;
41946;SDS011;27638;42.184;24.848;2023-04-08T09:07:34;24.50;;;14.32;;
41946;SDS011;27638;42.184;24.848;2023-04-08T09:10:00;23.50;;;14.57;;
41946;SDS011;27638;42.184;24.848;2023-04-08T09:12:27;22.65;;;14.95;;
41946;SDS011;27638;42.184;24.848;2023-04-08T09:15:08;20.70;;;14.20;;
41946;SDS011;27638;42.184;24.848;2023-04-08T09:17:38;21.23;;;14.57;;
41946;SDS011;27638;42.184;24.848;2023-04-08T09:20:07;21.80;;;14.02;;
41946;SDS011;27638;42.184;24.848;2023-04-08T09:25:32;18.42;;;12.55;;
41946;SDS011;27638;42.184;24.848;2023-04-08T09:27:58;21.73;;;13.43;;
41946;SDS011;27638;42.184;24.848;2023-04-08T09:30:24;19.08;;;13.02;;
41946;SDS011;27638;42.184;24.848;2023-04-08T09:32:52;18.10;;;13.13;;
41946;SDS011;27638;42.184;24.848;2023-04-08T09:35:19;19.05;;;12.80;;
41946;SDS011;27638;42.184;24.848;2023-04-08T09:37:45;19.83;;;11.93;;
41946;SDS011;27638;42.184;24.848;2023-04-08T09:40:11;21.40;;;12.48;;
41946;SDS011;27638;42.184;24.848;2023-04-08T09:42:39;18.42;;;12.85;;
41946;SDS011;27638;42.184;24.848;2023-04-08T09:45:08;20.55;;;13.05;;
41946;SDS011;27638;42.184;24.848;2023-04-08T09:47:44;17.60;;;11.15;;
41946;SDS011;27638;42.184;24.848;2023-04-08T09:50:21;13.88;;;10.57;;
41946;SDS011;27638;42.184;24.848;2023-04-08T09:52:52;15.88;;;12.10;;
41946;SDS011;27638;42.184;24.848;2023-04-08T09:55:21;16.65;;;12.02;;
41946;SDS011;27638;42.184;24.848;2023-04-08T09:57:50;17.40;;;12.32;;
41946;SDS011;27638;42.184;24.848;2023-04-08T10:00:19;20.02;;;13.38;;
41946;SDS011;27638;42.184;24.848;2023-04-08T10:05:26;18.63;;;12.68;;
41946;SDS011;27638;42.184;24.848;2023-04-08T10:07:54;21.08;;;14.00;;
41946;SDS011;27638;42.184;24.848;2023-04-08T10:10:20;15.05;;;11.25;;
41946;SDS011;27638;42.184;24.848;2023-04-08T10:12:46;19.60;;;11.90;;
41946;SDS011;27638;42.184;24.848;2023-04-08T10:17:55;19.65;;;13.82;;
41946;SDS011;27638;42.184;24.848;2023-04-08T10:20:45;21.23;;;12.48;;
41946;SDS011;27638;42.184;24.848;2023-04-08T10:23:12;22.58;;;13.80;;
41946;SDS011;27638;42.184;24.848;2023-04-08T10:25:40;19.15;;;13.02;;
41946;SDS011;27638;42.184;24.848;2023-04-08T10:30:38;22.60;;;14.30;;
41946;SDS011;27638;42.184;24.848;2023-04-08T10:33:11;18.80;;;12.65;;
41946;SDS011;27638;42.184;24.848;2023-04-08T10:35:40;17.33;;;13.13;;
41946;SDS011;27638;42.184;24.848;2023-04-08T10:38:08;18.23;;;12.93;;
41946;SDS011;27638;42.184;24.848;2023-04-08T10:40:37;18.10;;;13.52;;
41946;SDS011;27638;42.184;24.848;2023-04-08T10:43:03;17.20;;;12.75;;
41946;SDS011;27638;42.184;24.848;2023-04-08T10:45:32;20.00;;;14.40;;
41946;SDS011;27638;42.184;24.848;2023-04-08T10:50:36;19.52;;;14.02;;
41946;SDS011;27638;42.184;24.848;2023-04-08T10:53:02;19.77;;;13.90;;
41946;SDS011;27638;42.184;24.848;2023-04-08T10:55:27;18.23;;;13.38;;
41946;SDS011;27638;42.184;24.848;2023-04-08T10:57:53;19.40;;;12.73;;
41946;SDS011;27638;42.184;24.848;2023-04-08T11:00:19;19.27;;;12.43;;
41946;SDS011;27638;42.184;24.848;2023-04-08T11:03:19;18.25;;;12.05;;
41946;SDS011;27638;42.184;24.848;2023-04-08T11:05:43;16.42;;;12.82;;
41946;SDS011;27638;42.184;24.848;2023-04-08T11:08:09;16.58;;;11.88;;
41946;SDS011;27638;42.184;24.848;2023-04-08T11:10:37;16.77;;;11.82;;
41946;SDS011;27638;42.184;24.848;2023-04-08T11:13:05;18.90;;;12.68;;
41946;SDS011;27638;42.184;24.848;2023-04-08T11:15:32;16.55;;;11.52;;
41946;SDS011;27638;42.184;24.848;2023-04-08T11:18:01;15.82;;;11.68;;
41946;SDS011;27638;42.184;24.848;2023-04-08T11:20:27;15.60;;;12.18;;
41946;SDS011;27638;42.184;24.848;2023-04-08T11:22:53;16.20;;;11.80;;
41946;SDS011;27638;42.184;24.848;2023-04-08T11:25:19;17.55;;;12.00;;
41946;SDS011;27638;42.184;24.848;2023-04-08T11:27:44;15.23;;;11.32;;
41946;SDS011;27638;42.184;24.848;2023-04-08T11:30:11;15.60;;;12.20;;
41946;SDS011;27638;42.184;24.848;2023-04-08T11:32:37;17.50;;;12.25;;
41946;SDS011;27638;42.184;24.848;2023-04-08T11:35:04;15.52;;;11.15;;
41946;SDS011;27638;42.184;24.848;2023-04-08T11:37:36;15.63;;;11.15;;
41946;SDS011;27638;42.184;24.848;2023-04-08T11:40:09;16.73;;;11.57;;
41946;SDS011;27638;42.184;24.848;2023-04-08T11:42:36;14.07;;;10.30;;
41946;SDS011;27638;42.184;24.848;2023-04-08T11:45:11;16.33;;;10.95;;
41946;SDS011;27638;42.184;24.848;2023-04-08T11:47:38;14.43;;;9.93;;
41946;SDS011;27638;42.184;24.848;2023-04-08T11:50:05;13.52;;;10.25;;
41946;SDS011;27638;42.184;24.848;2023-04-08T11:52:44;13.35;;;9.73;;
41946;SDS011;27638;42.184;24.848;2023-04-08T11:55:10;14.20;;;10.10;;
41946;SDS011;27638;42.184;24.848;2023-04-08T11:57:37;13.00;;;9.70;;
41946;SDS011;27638;42.184;24.848;2023-04-08T12:00:04;15.48;;;9.70;;
41946;SDS011;27638;42.184;24.848;2023-04-08T12:02:31;11.57;;;8.73;;
41946;SDS011;27638;42.184;24.848;2023-04-08T12:04:56;11.75;;;8.45;;
41946;SDS011;27638;42.184;24.848;2023-04-08T12:07:21;13.52;;;9.43;;
41946;SDS011;27638;42.184;24.848;2023-04-08T12:09:47;13.35;;;9.48;;
41946;SDS011;27638;42.184;24.848;2023-04-08T12:12:12;12.43;;;8.95;;
41946;SDS011;27638;42.184;24.848;2023-04-08T12:14:38;14.18;;;8.70;;
41946;SDS011;27638;42.184;24.848;2023-04-08T12:17:03;13.88;;;10.25;;
41946;SDS011;27638;42.184;24.848;2023-04-08T12:19:29;13.55;;;9.23;;
41946;SDS011;27638;42.184;24.848;2023-04-08T12:21:54;10.50;;;8.45;;
41946;SDS011;27638;42.184;24.848;2023-04-08T12:24:19;12.50;;;8.18;;
41946;SDS011;27638;42.184;24.848;2023-04-08T12:26:45;13.38;;;8.60;;
41946;SDS011;27638;42.184;24.848;2023-04-08T12:29:11;13.68;;;9.43;;
41946;SDS011;27638;42.184;24.848;2023-04-08T12:31:36;12.85;;;8.50;;
41946;SDS011;27638;42.184;24.848;2023-04-08T12:34:02;12.75;;;8.85;;
41946;SDS011;27638;42.184;24.848;2023-04-08T12:36:27;17.50;;;9.95;;
41946;SDS011;27638;42.184;24.848;2023-04-08T12:38:53;12.65;;;7.32;;
41946;SDS011;27638;42.184;24.848;2023-04-08T12:41:18;12.55;;;8.30;;
41946;SDS011;27638;42.184;24.848;2023-04-08T12:43:44;10.77;;;7.68;;
41946;SDS011;27638;42.184;24.848;2023-04-08T12:46:09;12.57;;;8.23;;
41946;SDS011;27638;42.184;24.848;2023-04-08T12:48:35;11.88;;;7.57;;
41946;SDS011;27638;42.184;24.848;2023-04-08T12:51:00;12.48;;;8.18;;
41946;SDS011;27638;42.184;24.848;2023-04-08T12:53:26;11.50;;;7.30;;
41946;SDS011;27638;42.184;24.848;2023-04-08T12:55:52;10.70;;;7.88;;
41946;SDS011;27638;42.184;24.848;2023-04-08T12:58:21;11.02;;;7.80;;
41946;SDS011;27638;42.184;24.848;2023-04-08T13:00:47;10.30;;;8.23;;
41946;SDS011;27638;42.184;24.848;2023-04-08T13:03:13;10.10;;;7.88;;
41946;SDS011;27638;42.184;24.848;2023-04-08T13:05:41;9.27;;;7.50;;
41946;SDS011;27638;42.184;24.848;2023-04-08T13:08:06;10.80;;;7.78;;
41946;SDS011;27638;42.184;24.848;2023-04-08T13:10:32;10.63;;;7.63;;
41946;SDS011;27638;42.184;24.848;2023-04-08T13:12:58;11.70;;;7.25;;
41946;SDS011;27638;42.184;24.848;2023-04-08T13:15:23;7.95;;;6.78;;
41946;SDS011;27638;42.184;24.848;2023-04-08T13:17:49;8.93;;;7.40;;
41946;SDS011;27638;42.184;24.848;2023-04-08T13:20:15;8.65;;;7.55;;
41946;SDS011;27638;42.184;24.848;2023-04-08T13:22:40;11.13;;;7.63;;
41946;SDS011;27638;42.184;24.848;2023-04-08T13:25:06;13.00;;;8.38;;
41946;SDS011;27638;42.184;24.848;2023-04-08T13:27:33;12.18;;;8.02;;
41946;SDS011;27638;42.184;24.848;2023-04-08T13:29:58;11.00;;;7.35;;
41946;SDS011;27638;42.184;24.848;2023-04-08T13:32:24;10.23;;;7.88;;
41946;SDS011;27638;42.184;24.848;2023-04-08T13:34:50;10.32;;;7.00;;
41946;SDS011;27638;42.184;24.848;2023-04-08T13:37:15;9.70;;;6.82;;
41946;SDS011;27638;42.184;24.848;2023-04-08T13:39:41;10.45;;;7.07;;
41946;SDS011;27638;42.184;24.848;2023-04-08T13:42:06;9.98;;;7.60;;
41946;SDS011;27638;42.184;24.848;2023-04-08T13:44:32;11.35;;;8.55;;
41946;SDS011;27638;42.184;24.848;2023-04-08T13:46:58;11.07;;;6.57;;
41946;SDS011;27638;42.184;24.848;2023-04-08T13:49:24;10.68;;;7.95;;
41946;SDS011;27638;42.184;24.848;2023-04-08T13:51:50;10.50;;;8.32;;
41946;SDS011;27638;42.184;24.848;2023-04-08T13:54:15;11.25;;;7.82;;
41946;SDS011;27638;42.184;24.848;2023-04-08T13:56:41;11.95;;;8.30;;
41946;SDS011;27638;42.184;24.848;2023-04-08T13:59:06;12.73;;;8.23;;
41946;SDS011;27638;42.184;24.848;2023-04-08T14:01:34;10.55;;;7.18;;
41946;SDS011;27638;42.184;24.848;2023-04-08T14:03:59;10.15;;;7.32;;
41946;SDS011;27638;42.184;24.848;2023-04-08T14:06:25;12.05;;;8.23;;
41946;SDS011;27638;42.184;24.848;2023-04-08T14:08:51;11.27;;;6.75;;
41946;SDS011;27638;42.184;24.848;2023-04-08T14:11:16;6.55;;;5.30;;
41946;SDS011;27638;42.184;24.848;2023-04-08T14:13:42;5.65;;;4.00;;
41946;SDS011;27638;42.184;24.848;2023-04-08T14:16:07;4.32;;;3.88;;
41946;SDS011;27638;42.184;24.848;2023-04-08T14:18:33;4.90;;;4.30;;
41946;SDS011;27638;42.184;24.848;2023-04-08T14:20:58;4.80;;;3.80;;
41946;SDS011;27638;42.184;24.848;2023-04-08T14:23:24;4.78;;;4.00;;
41946;SDS011;27638;42.184;24.848;2023-04-08T14:25:50;5.18;;;4.47;;